Edwin H. Gott — WDG7082 — position and weather

sailwx.info

Track history (hours):
 
Tides and Currents Weather Stations Pressure Air Temp Water Temp Dewpoint Dewpoint Depression Visibility Wind Speed Wind Dir Waves Ship Positions

Edwin H. Gott

Owner: Great Lakes Fleet, Inc., Homewood, IL. More information available from US FCC via Universal Licensing System and Coast Guard Vessel Documentation Center.

Last reported at 2017-Nov-19 13:05 UTC. Time now 2017-Nov-22 20:30 UTC.
Position N 45°52' W 084°06'.

Length 306 m; draft 7.3 m.

Type: Ship. MMSI: 366971370.

Date/timePositionNaut miles runAvg speedWind from/ knotsBaromVisibWave heightAir tempDewpointWater temp
2017-Nov-19 13:05N 45°52' W 084°06'413.4
2017-Nov-19 12:49N 45°51' W 084°11'414.1
2017-Nov-19 12:30N 45°51' W 084°17'714.2
2017-Nov-19 12:00N 45°51' W 084°27'713.5
2017-Nov-19 11:30N 45°50' W 084°37'714.0
2017-Nov-19 11:00N 45°49' W 084°47'714.5
2017-Nov-19 10:30N 45°50' W 084°57'714.3
2017-Nov-19 10:01N 45°52' W 085°07'714.3
2017-Nov-19 09:29N 45°53' W 085°18'714.3
2017-Nov-19 09:00N 45°54' W 085°27'714.4
2017-Nov-19 08:31N 45°53' W 085°38'714.6
2017-Nov-19 08:01N 45°52' W 085°48'  
2017-Nov-16 01:11N 45°53' W 085°44'212.8
2017-Nov-16 01:00N 45°53' W 085°40'712.4
2017-Nov-16 00:24N 45°54' W 085°29'912.5
2017-Nov-15 23:43N 45°53' W 085°17'312.5
2017-Nov-15 23:30N 45°52' W 085°14'612.5
2017-Nov-15 23:00N 45°51' W 085°05'612.9
2017-Nov-15 22:30N 45°50' W 084°56'713.4
2017-Nov-15 22:00N 45°49' W 084°46'612.1
2017-Nov-15 21:30N 45°50' W 084°38'611.5
2017-Nov-15 21:00N 45°52' W 084°30'712.9
2017-Nov-15 20:30N 45°53' W 084°20'307 8.8
2017-Nov-14 09:30N 47°01' W 091°35'4 7.5
2017-Nov-14 09:00N 47°01' W 091°40'0 0.1
2017-Nov-14 08:21N 47°01' W 091°40'0 0.0
2017-Nov-14 05:30N 47°01' W 091°40'0 0.0
2017-Nov-14 04:59N 47°01' W 091°40'0 0.0
2017-Nov-14 01:41N 47°01' W 091°40'0 0.0
2017-Nov-14 01:28N 47°01' W 091°40'0 0.0
2017-Nov-13 23:35N 47°01' W 091°40'0 0.0
2017-Nov-13 23:18N 47°01' W 091°40'0 0.0
2017-Nov-13 22:48N 47°01' W 091°40'0 0.1
2017-Nov-13 22:30N 47°01' W 091°40'0 0.3
2017-Nov-13 22:00N 47°01' W 091°40'320 8.8
2017-Nov-12 09:31N 45°51' W 084°07'114.7
2017-Nov-12 09:29N 45°51' W 084°08'714.0
2017-Nov-12 08:59N 45°51' W 084°18'714.3
2017-Nov-12 08:30N 45°51' W 084°27'713.4
2017-Nov-12 08:00N 45°50' W 084°37'714.0
2017-Nov-12 07:30N 45°49' W 084°47'714.6
2017-Nov-12 07:00N 45°49' W 084°57'714.1
2017-Nov-12 06:30N 45°49' W 085°07'510.2
2017-Nov-12 06:00N 45°45' W 085°10'713.5
2017-Nov-12 05:30N 45°39' W 085°16'713.9
2017-Nov-12 05:01N 45°34' W 085°22'714.8
2017-Nov-12 04:31N 45°28' W 085°28'714.3
2017-Nov-12 04:01N 45°22' W 085°34'714.2
2017-Nov-12 03:31N 45°16' W 085°40'714.2
2017-Nov-12 03:01N 45°11' W 085°46'714.3
2017-Nov-12 02:31N 45°05' W 085°52'  
Track history (hours):
 
Tides and Currents Weather Stations Pressure Air Temp Water Temp Dewpoint Dewpoint Depression Visibility Wind Speed Wind Dir Waves Ship Positions

Edwin H. Gott

Owner: Great Lakes Fleet, Inc., Homewood, IL. More information available from US FCC via Universal Licensing System and Coast Guard Vessel Documentation Center.

Last reported at 2017-Nov-19 13:05 UTC. Time now 2017-Nov-22 20:30 UTC.
Position N 45°52' W 084°06'.

Length 306 m; draft 7.3 m.

Type: Ship. MMSI: 366971370.

Date/timePositionNaut miles runAvg speedWind from/ knotsBaromVisibWave heightAir tempDewpointWater temp
2017-Nov-19 13:05N 45°52' W 084°06'413.4
2017-Nov-19 12:49N 45°51' W 084°11'414.1
2017-Nov-19 12:30N 45°51' W 084°17'714.2
2017-Nov-19 12:00N 45°51' W 084°27'713.5
2017-Nov-19 11:30N 45°50' W 084°37'714.0
2017-Nov-19 11:00N 45°49' W 084°47'714.5
2017-Nov-19 10:30N 45°50' W 084°57'714.3
2017-Nov-19 10:01N 45°52' W 085°07'714.3
2017-Nov-19 09:29N 45°53' W 085°18'714.3
2017-Nov-19 09:00N 45°54' W 085°27'714.4
2017-Nov-19 08:31N 45°53' W 085°38'714.6
2017-Nov-19 08:01N 45°52' W 085°48'  
2017-Nov-16 01:11N 45°53' W 085°44'212.8
2017-Nov-16 01:00N 45°53' W 085°40'712.4
2017-Nov-16 00:24N 45°54' W 085°29'912.5
2017-Nov-15 23:43N 45°53' W 085°17'312.5
2017-Nov-15 23:30N 45°52' W 085°14'612.5
2017-Nov-15 23:00N 45°51' W 085°05'612.9
2017-Nov-15 22:30N 45°50' W 084°56'713.4
2017-Nov-15 22:00N 45°49' W 084°46'612.1
2017-Nov-15 21:30N 45°50' W 084°38'611.5
2017-Nov-15 21:00N 45°52' W 084°30'712.9
2017-Nov-15 20:30N 45°53' W 084°20'307 8.8
2017-Nov-14 09:30N 47°01' W 091°35'4 7.5
2017-Nov-14 09:00N 47°01' W 091°40'0 0.1
2017-Nov-14 08:21N 47°01' W 091°40'0 0.0
2017-Nov-14 05:30N 47°01' W 091°40'0 0.0
2017-Nov-14 04:59N 47°01' W 091°40'0 0.0
2017-Nov-14 01:41N 47°01' W 091°40'0 0.0
2017-Nov-14 01:28N 47°01' W 091°40'0 0.0
2017-Nov-13 23:35N 47°01' W 091°40'0 0.0
2017-Nov-13 23:18N 47°01' W 091°40'0 0.0
2017-Nov-13 22:48N 47°01' W 091°40'0 0.1
2017-Nov-13 22:30N 47°01' W 091°40'0 0.3
2017-Nov-13 22:00N 47°01' W 091°40'320 8.8
2017-Nov-12 09:31N 45°51' W 084°07'114.7
2017-Nov-12 09:29N 45°51' W 084°08'714.0
2017-Nov-12 08:59N 45°51' W 084°18'714.3
2017-Nov-12 08:30N 45°51' W 084°27'713.4
2017-Nov-12 08:00N 45°50' W 084°37'714.0
2017-Nov-12 07:30N 45°49' W 084°47'714.6
2017-Nov-12 07:00N 45°49' W 084°57'714.1
2017-Nov-12 06:30N 45°49' W 085°07'510.2
2017-Nov-12 06:00N 45°45' W 085°10'713.5
2017-Nov-12 05:30N 45°39' W 085°16'713.9
2017-Nov-12 05:01N 45°34' W 085°22'714.8
2017-Nov-12 04:31N 45°28' W 085°28'714.3
2017-Nov-12 04:01N 45°22' W 085°34'714.2
2017-Nov-12 03:31N 45°16' W 085°40'714.2
2017-Nov-12 03:01N 45°11' W 085°46'714.3
2017-Nov-12 02:31N 45°05' W 085°52'  

Dump ship's entire track history